Last 24 Hours

Canyon Lodge

5 Minute Data | America/Los_Angeles
as of 2/5/23 9:31 PM PST
Date & Time Temp (°F) RH (%) Dew Pt (°F) Wet Bulb (°F) Wind Dir (°) Wind Spd (mph) Wind Gust (mph) Wind Gst Dir (°)
2/5/23 - 2125 8.5 90 6.1 8.3 WSW | 241 2.7 5.2 WSW | 248
2/5/23 - 2120 8.9 90 6.6 8.7 SW | 218 0.5 2.6 SW | 221
2/5/23 - 2115 9.2 90 7.0 9.0 SW | 236 2.9 6.0 SW | 218
2/5/23 - 2110 9.5 91 7.3 9.2 WSW | 245 3.6 5.8 SSW | 212
2/5/23 - 2105 9.7 91 7.7 9.5 W | 262 4.2 5.7 WSW | 256
2/5/23 - 2100 9.4 90 7.1 9.1 W | 263 4.6 5.8 W | 263
2/5/23 - 2055 9.8 90 7.5 9.6 W | 267 4.2 5.5 W | 269
2/5/23 - 2050 10.3 92 8.4 10.1 W | 275 4.1 6.0 W | 273
2/5/23 - 2045 9.5 91 7.3 9.2 W | 260 4.9 6.3 W | 270
2/5/23 - 2040 10.1 90 7.8 9.8 W | 267 5.6 7.1 W | 274
2/5/23 - 2035 10.3 91 8.1 10.0 W | 271 4.9 6.5 W | 265
2/5/23 - 2030 10.4 91 8.2 10.1 W | 263 4.9 7.0 W | 260
2/5/23 - 2025 10.6 89 8.0 10.2 WSW | 258 4.7 6.1 W | 277
2/5/23 - 2020 11.3 90 9.0 10.9 W | 265 4.2 5.8 W | 271
2/5/23 - 2015 12.2 91 10.1 11.8 W | 276 4.7 7.5 W | 268
2/5/23 - 2010 12.3 92 10.3 12.0 W | 272 3.7 5.5 NW | 304
2/5/23 - 2005 12.7 92 10.7 12.3 W | 259 3.7 6.9 W | 270
2/5/23 - 2000 13.2 92 11.2 12.8 W | 269 3.0 5.7 W | 269
2/5/23 - 1955 13.6 92 11.7 13.2 WNW | 288 3.4 6.1 NW | 306
2/5/23 - 1950 13.9 93 12.3 13.5 WNW | 301 2.5 5.2 WNW | 293
2/5/23 - 1945 13.6 93 12.0 13.3 NW | 315 1.4 3.4 WNW | 286
2/5/23 - 1940 13.7 93 12.1 13.4 WSW | 239 1.3 4.7 SW | 236
2/5/23 - 1935 13.5 92 11.7 13.1 SW | 224 2.3 5.3 SW | 229
2/5/23 - 1930 13.6 92 11.8 13.3 WSW | 246 2.7 4.7 WSW | 258
2/5/23 - 1925 13.8 91 11.7 13.3 WSW | 246 5.0 7.5 SW | 223
2/5/23 - 1920 14.6 92 12.8 14.2 W | 267 2.1 5.3 WSW | 250
2/5/23 - 1915 14.7 93 13.0 14.3 NW | 311 2.5 4.6 WNW | 303
2/5/23 - 1910 14.8 92 12.8 14.4 SW | 225 1.9 6.1 WNW | 300
2/5/23 - 1905 15.6 93 14.0 15.2 SSE | 165 1.1 6.6 SE | 133
2/5/23 - 1900 15.9 93 14.3 15.5 W | 265 2.5 7.5 WSW | 252
2/5/23 - 1855 16.2 94 14.8 15.8 SSW | 197 2.6 8.0 SSW | 211
2/5/23 - 1850 16.2 94 14.8 15.8 SSW | 200 3.2 8.6 SW | 215
2/5/23 - 1845 16.2 94 14.7 15.8 SSW | 196 4.5 9.1 SW | 229
2/5/23 - 1840 16.3 94 14.9 15.9 S | 174 2.9 7.8 SSW | 195
2/5/23 - 1835 16.5 94 15.0 16.1 S | 182 2.6 9.0 SSW | 195
2/5/23 - 1830 16.7 94 15.2 16.3 SW | 215 1.2 6.1 SSW | 208
2/5/23 - 1825 16.8 94 15.4 16.4 WSW | 238 4.0 9.4 W | 270
2/5/23 - 1820 16.9 94 15.6 16.5 SW | 223 3.9 8.4 SSW | 204
2/5/23 - 1815 16.9 94 15.6 16.5 WSW | 238 3.5 12.1 W | 261
2/5/23 - 1810 17.0 94 15.7 16.7 SW | 232 3.6 11.8 WSW | 256
2/5/23 - 1805 17.0 94 15.7 16.7 WSW | 253 5.4 12.5 W | 260
2/5/23 - 1800 16.9 94 15.6 16.6 WSW | 245 5.1 11.0 W | 279
2/5/23 - 1755 16.9 94 15.5 16.5 SW | 218 3.9 7.9 SW | 222
2/5/23 - 1750 16.9 94 15.6 16.5 SW | 221 4.5 12.9 WSW | 241
2/5/23 - 1745 17.0 94 15.7 16.6 SSW | 209 5.7 16.3 W | 273
2/5/23 - 1740 17.1 94 15.7 16.7 SSW | 207 6.1 11.9 SSW | 205
2/5/23 - 1735 17.2 94 15.8 16.8 SSW | 199 6.7 13.1 SW | 214
2/5/23 - 1730 17.2 94 15.8 16.8 SSW | 198 5.7 12.9 SSW | 205
2/5/23 - 1725 17.4 94 16.1 17.0 SSW | 200 4.9 10.4 SW | 218
2/5/23 - 1720 17.6 94 16.3 17.2 SSW | 204 6.9 12.8 SW | 214
2/5/23 - 1715 17.9 95 16.7 17.5 SSW | 208 6.3 15.5 WSW | 244
2/5/23 - 1710 18.0 95 16.8 17.6 SW | 223 5.6 11.6 SSW | 210
2/5/23 - 1705 18.1 95 17.0 17.8 S | 188 4.1 9.1 SSW | 205
2/5/23 - 1700 18.1 95 17.0 17.8 SW | 215 3.8 10.1 SW | 214
2/5/23 - 1655 17.9 95 16.7 17.5 SSW | 202 4.8 9.2 SSW | 206
2/5/23 - 1650 17.8 95 16.5 17.4 SSW | 197 5.0 10.9 SW | 215
2/5/23 - 1645 17.9 95 16.6 17.5 SSW | 197 4.1 10.5 SW | 216
2/5/23 - 1640 17.9 95 16.6 17.5 WSW | 241 3.6 9.5 W | 266
2/5/23 - 1635 17.9 95 16.6 17.5 SSW | 208 3.2 7.2 SSW | 202
2/5/23 - 1630 17.9 95 16.6 17.5 SW | 229 3.9 10.6 SW | 215
2/5/23 - 1625 17.9 95 16.7 17.5 SW | 232 3.4 9.7 W | 262
2/5/23 - 1620 17.9 95 16.7 17.5 SW | 215 2.8 7.9 WNW | 284
2/5/23 - 1615 17.9 95 16.6 17.5 SW | 216 2.7 9.5 W | 265
2/5/23 - 1610 18.0 95 16.8 17.6 SW | 231 4.1 9.2 SW | 234
2/5/23 - 1605 18.0 95 16.7 17.6 SSW | 208 4.6 11.3 SW | 230
2/5/23 - 1600 18.0 95 16.7 17.6 SW | 217 3.2 10.6 SSW | 212
2/5/23 - 1555 18.1 94 16.7 17.7 SW | 226 5.9 14.4 WNW | 288
2/5/23 - 1550 18.4 95 17.2 18.0 SW | 225 2.8 11.5 SSW | 204
2/5/23 - 1545 18.4 95 17.1 18.0 SSW | 205 3.2 9.7 SE | 142
2/5/23 - 1540 18.4 95 17.1 18.0 SSW | 213 2.6 6.1 SSW | 212
2/5/23 - 1535 18.2 95 17.0 17.8 SW | 233 2.8 8.8 WNW | 282
2/5/23 - 1530 18.2 94 16.9 17.8 SW | 221 5.4 12.8 SSW | 208
2/5/23 - 1525 18.2 94 16.9 17.8 SSW | 202 5.1 11.3 SSW | 196
2/5/23 - 1520 18.5 95 17.2 18.1 SSW | 213 3.4 11.5 W | 280
2/5/23 - 1515 18.5 94 17.1 18.0 SW | 218 5.7 13.1 SSW | 192
2/5/23 - 1510 18.6 95 17.3 18.2 SSW | 200 4.7 15.1 WSW | 249
2/5/23 - 1505 18.6 94 17.3 18.2 SSW | 193 6.3 13.7 SW | 221
2/5/23 - 1500 18.7 94 17.4 18.3 SSW | 200 5.6 14.1 SSW | 208
2/5/23 - 1455 19.1 95 17.8 18.6 SW | 234 5.5 15.4 W | 260
2/5/23 - 1450 19.2 95 18.0 18.8 SSW | 213 3.7 10.5 SW | 219
2/5/23 - 1445 19.1 96 18.0 18.7 SSW | 200 3.9 8.9 SW | 214
2/5/23 - 1440 19.1 95 17.9 18.7 SSW | 196 5.4 13.8 SSE | 166
2/5/23 - 1435 19.1 95 17.9 18.7 S | 190 5.1 13.2 SW | 214
2/5/23 - 1430 19.2 95 18.0 18.8 SW | 218 5.1 11.4 SW | 228
2/5/23 - 1425 19.2 95 18.1 18.8 SW | 218 3.2 9.8 SSW | 212
2/5/23 - 1420 19.1 95 18.0 18.7 SSW | 198 3.6 9.2 SSE | 159
2/5/23 - 1415 19.1 95 17.9 18.7 SSW | 206 4.4 11.3 S | 185
2/5/23 - 1410 19.1 94 17.8 18.6 SSW | 198 6.7 12.8 SW | 229
2/5/23 - 1405 19.3 95 18.1 18.9 SSW | 194 6.3 16.9 S | 186
2/5/23 - 1400 19.5 95 18.4 19.1 SSW | 204 3.7 10.8 SW | 218
2/5/23 - 1355 19.7 96 18.6 19.3 SSW | 210 4.0 9.1 SSW | 202
2/5/23 - 1350 19.7 95 18.5 19.2 SSW | 196 4.8 10.8 SW | 214
2/5/23 - 1345 19.8 95 18.6 19.4 SSW | 209 5.9 13.7 SW | 228
2/5/23 - 1340 19.9 96 18.8 19.5 SSW | 192 5.1 11.4 S | 190
2/5/23 - 1335 19.9 96 18.8 19.5 SW | 217 3.5 12.3 SSW | 198
2/5/23 - 1330 19.9 95 18.8 19.5 SW | 217 4.3 9.5 WSW | 249
2/5/23 - 1325 20.1 96 19.1 19.7 SW | 216 3.6 8.0 SSW | 196
2/5/23 - 1320 20.0 96 19.0 19.6 SSW | 208 3.1 8.6 WSW | 248
2/5/23 - 1315 20.0 96 19.0 19.6 SW | 228 4.8 13.9 SSW | 202
2/5/23 - 1310 19.9 96 18.9 19.5 SSW | 203 5.0 13.1 SSW | 211
2/5/23 - 1305 19.9 96 18.8 19.5 SSW | 212 6.1 12.5 SW | 214
2/5/23 - 1300 19.8 96 18.7 19.4 SSW | 202 5.3 11.6 SSW | 212
2/5/23 - 1255 19.8 96 18.7 19.4 SSW | 204 5.3 12.7 SW | 220
2/5/23 - 1250 19.9 96 18.8 19.5 SSW | 204 5.2 13.6 SW | 226
2/5/23 - 1245 19.8 96 18.8 19.4 SW | 214 3.6 11.0 SSW | 212
2/5/23 - 1240 19.7 96 18.7 19.3 SW | 225 3.1 11.3 WSW | 252
2/5/23 - 1235 19.4 96 18.4 19.0 SSW | 211 3.3 9.1 NW | 306
2/5/23 - 1230 19.4 96 18.4 19.0 W | 274 2.9 10.6 WSW | 239
2/5/23 - 1225 19.3 96 18.3 18.9 SE | 126 1.0 7.5 SE | 134
2/5/23 - 1220 19.2 96 18.1 18.8 W | 268 1.2 6.0 SSW | 204
2/5/23 - 1215 19.2 95 18.1 18.8 WNW | 282 1.5 5.8 SW | 220
2/5/23 - 1210 19.1 96 18.0 18.7 WSW | 242 1.3 6.7 SE | 132
2/5/23 - 1205 19.1 95 17.9 18.7 W | 273 1.8 5.2 WSW | 245
2/5/23 - 1200 19.1 95 17.9 18.7 SSE | 159 1.4 4.8 SW | 233
2/5/23 - 1155 19.0 95 17.7 18.5 SSW | 212 5.6 18.0 W | 269
2/5/23 - 1150 19.0 95 17.8 18.5 SW | 214 6.1 19.4 WSW | 239
2/5/23 - 1145 19.2 95 18.0 18.8 SW | 223 4.1 13.1 SW | 219
2/5/23 - 1140 19.2 94 17.8 18.7 WSW | 244 8.6 22.0 WSW | 254
2/5/23 - 1135 19.7 94 18.2 19.2 SSW | 199 7.5 18.9 SW | 215
2/5/23 - 1130 20.0 94 18.7 19.6 SSW | 193 4.7 15.3 SW | 236
2/5/23 - 1125 20.1 93 18.4 19.5 SSW | 196 5.9 13.3 SSE | 164
2/5/23 - 1120 20.1 96 19.1 19.8 NNE | 12 3.7 7.5 S | 173
2/5/23 - 1115 19.9 96 18.9 19.6 W | 263 4.2 12.4 WNW | 287
2/5/23 - 1110 19.7 96 18.7 19.3 SSW | 192 2.0 6.1 SE | 136
2/5/23 - 1105 19.3 95 18.1 18.9 W | 263 3.4 12.1 W | 272
2/5/23 - 1100 19.2 95 18.0 18.8 W | 281 4.7 12.6 W | 273
2/5/23 - 1055 19.2 95 18.1 18.8 SW | 219 2.3 6.9 SSE | 164
2/5/23 - 1050 19.0 96 17.9 18.6 SW | 219 2.4 10.1 SW | 218
2/5/23 - 1045 18.6 95 17.4 18.2 WNW | 300 3.6 12.0 WNW | 298
2/5/23 - 1040 18.2 95 17.1 17.9 W | 268 1.3 6.8 SSW | 207
2/5/23 - 1035 18.0 94 16.7 17.6 SW | 227 4.6 11.7 SW | 218
2/5/23 - 1030 18.1 94 16.7 17.7 W | 260 2.8 9.1 W | 277
2/5/23 - 1025 18.4 94 17.0 17.9 WSW | 254 3.9 9.7 S | 190
2/5/23 - 1020 18.5 94 17.1 18.0 SW | 229 3.5 11.1 SSW | 192
2/5/23 - 1015 18.6 94 17.2 18.2 W | 260 5.8 13.9 WSW | 255
2/5/23 - 1010 18.6 94 17.2 18.2 W | 262 4.5 12.5 WNW | 287
2/5/23 - 1005 18.5 94 17.1 18.0 W | 268 3.3 9.8 W | 271
2/5/23 - 1000 18.4 94 16.9 17.9 W | 270 4.5 11.9 SSW | 207
2/5/23 - 0955 18.5 94 17.0 18.0 W | 265 5.3 15.3 WSW | 247
2/5/23 - 0950 18.7 95 17.4 18.3 W | 263 3.2 9.0 SW | 230
2/5/23 - 0945 18.5 95 17.2 18.1 W | 267 3.8 9.6 NW | 319
2/5/23 - 0940 18.4 94 17.0 17.9 WSW | 247 3.5 12.4 WSW | 256
2/5/23 - 0935 18.7 94 17.2 18.2 WNW | 294 3.3 14.8 WNW | 285
2/5/23 - 0930 19.3 94 17.9 18.8 W | 279 4.5 11.0 W | 264
2/5/23 - 0925 19.8 95 18.6 19.4 SW | 226 2.0 9.6 WSW | 237
2/5/23 - 0920 19.7 95 18.5 19.2 NW | 306 2.5 5.1 NW | 325
2/5/23 - 0915 19.7 95 18.5 19.2 WNW | 299 2.5 9.8 WNW | 283
2/5/23 - 0910 19.8 95 18.5 19.3 WSW | 258 2.7 9.9 W | 264
2/5/23 - 0905 19.8 95 18.6 19.3 SW | 222 6.3 18.1 SW | 235
2/5/23 - 0900 19.8 94 18.3 19.3 SW | 220 7.2 23.8 WNW | 290
2/5/23 - 0855 20.0 92 18.1 19.4 SSW | 195 5.5 15.2 SE | 143
2/5/23 - 0850 19.9 92 18.1 19.3 WNW | 288 3.8 13.4 W | 268
2/5/23 - 0845 19.8 94 18.3 19.3 NNE | 25 2.8 8.6 NNE | 14
2/5/23 - 0840 19.5 95 18.3 19.1 E | 88 1.5 6.0 NNE | 33
2/5/23 - 0835 19.3 95 18.1 18.9 NE | 47 1.8 7.4 NNE | 27
2/5/23 - 0830 19.2 94 17.8 18.7 NNE | 24 2.7 7.8 NNE | 12
2/5/23 - 0825 19.0 94 17.6 18.5 NNW | 335 2.5 7.6 SW | 221
2/5/23 - 0820 19.1 94 17.5 18.6 NNW | 337 2.4 11.3 NW | 311
2/5/23 - 0815 19.2 93 17.5 18.6 WNW | 300 1.8 6.3 SW | 235
2/5/23 - 0810 19.0 93 17.4 18.4 SSW | 195 3.7 11.1 WSW | 246
2/5/23 - 0805 18.8 93 17.0 18.3 WNW | 286 1.3 5.8 SW | 231
2/5/23 - 0800 18.8 93 17.1 18.3 NNW | 340 0.7 1.6 NW | 305
2/5/23 - 0755 19.0 92 16.9 18.3 W | 276 1.7 7.7 NNE | 19
2/5/23 - 0750 19.2 90 16.7 18.4 S | 180 2.6 10.9 SSW | 208
2/5/23 - 0745 19.1 89 16.4 18.3 S | 183 3.8 8.4 SE | 142
2/5/23 - 0740 19.1 89 16.4 18.3 SE | 128 2.1 9.8 SE | 134
2/5/23 - 0735 19.0 89 16.3 18.2 NE | 41 1.3 4.9 NNW | 341
2/5/23 - 0730 18.8 89 16.1 18.0 NW | 307 4.1 13.9 NNW | 332
2/5/23 - 0725 18.8 90 16.3 18.1 SSE | 156 2.8 8.6 SE | 126
2/5/23 - 0720 18.7 89 16.1 17.9 SSE | 158 3.4 10.1 SE | 133
2/5/23 - 0715 18.7 89 16.0 17.9 SSE | 147 2.4 10.1 NE | 39
2/5/23 - 0710 18.7 88 15.9 17.9 W | 260 3.0 8.4 SW | 233
2/5/23 - 0705 18.8 88 15.9 18.0 ESE | 121 1.2 3.8 ESE | 116
2/5/23 - 0700 18.7 87 15.6 17.8 SE | 146 1.9 6.4 ESE | 109
2/5/23 - 0655 18.7 87 15.6 17.8 SSE | 155 4.0 9.6 SSW | 211
2/5/23 - 0650 18.7 89 15.9 17.9 SSW | 205 2.4 8.5 WSW | 253
2/5/23 - 0645 18.7 88 15.8 17.9 SSW | 202 4.4 9.1 SE | 126
2/5/23 - 0640 19.0 88 16.1 18.1 SSW | 213 5.4 12.8 WSW | 254
2/5/23 - 0635 19.0 89 16.3 18.2 SSE | 164 1.6 7.1 WSW | 244
2/5/23 - 0630 19.0 89 16.3 18.2 WSW | 250 3.6 9.7 SW | 216
2/5/23 - 0625 18.8 89 16.2 18.0 WSW | 253 3.9 7.4 WSW | 256
2/5/23 - 0620 19.0 89 16.2 18.1 SSE | 164 3.3 7.7 SSE | 148
2/5/23 - 0615 19.1 89 16.3 18.2 SSW | 196 2.1 7.4 S | 170
2/5/23 - 0610 19.1 89 16.4 18.3 SSW | 208 2.2 11.4 WSW | 244
2/5/23 - 0605 19.2 89 16.4 18.4 SSE | 164 4.5 12.2 SW | 224
2/5/23 - 0600 19.2 88 16.2 18.3 S | 185 5.5 12.4 S | 185
2/5/23 - 0555 19.2 89 16.5 18.4 S | 188 3.5 7.6 SSW | 196
2/5/23 - 0550 19.2 88 16.3 18.3 SW | 232 3.7 10.6 ENE | 63
2/5/23 - 0545 19.0 88 16.1 18.1 SSW | 193 3.7 8.8 SE | 137
2/5/23 - 0540 19.2 89 16.4 18.4 SSW | 200 4.7 15.0 SSE | 161
2/5/23 - 0535 19.3 89 16.5 18.5 SSW | 211 3.8 13.1 ESE | 122
2/5/23 - 0530 19.2 90 16.6 18.4 SW | 215 6.9 21.9 SW | 215
2/5/23 - 0525 19.2 89 16.4 18.3 NNW | 348 1.2 6.0 WNW | 287
2/5/23 - 0520 19.3 87 16.0 18.3 W | 275 4.4 13.9 WSW | 257
2/5/23 - 0515 19.2 89 16.5 18.4 SSW | 210 3.9 13.7 SW | 230
2/5/23 - 0510 19.4 88 16.5 18.5 S | 176 6.2 13.5 SSE | 162
2/5/23 - 0505 19.4 87 16.2 18.5 S | 174 4.3 13.6 SSW | 213
2/5/23 - 0500 19.4 90 17.0 18.7 SSW | 197 7.6 18.5 SSW | 202
2/5/23 - 0455 19.5 90 17.0 18.8 W | 276 4.1 14.0 NW | 311
2/5/23 - 0450 19.8 90 17.4 19.0 WNW | 285 4.4 10.8 ESE | 103
2/5/23 - 0445 20.0 92 18.0 19.4 ESE | 116 4.5 18.6 SE | 143
2/5/23 - 0440 20.1 90 17.8 19.4 SE | 139 6.1 26.2 SE | 140
2/5/23 - 0435 20.2 92 18.3 19.6 WSW | 239 3.7 10.3 WSW | 252
2/5/23 - 0430 20.4 93 18.7 19.8 NNW | 336 3.8 10.9 WNW | 300
2/5/23 - 0425 20.6 93 18.9 20.0 E | 82 3.3 16.7 SE | 133
2/5/23 - 0420 20.6 94 19.1 20.1 SSE | 159 3.1 8.7 SE | 139
2/5/23 - 0415 20.6 94 19.0 20.0 SSE | 149 5.2 15.9 SSE | 153
2/5/23 - 0410 20.6 94 19.1 20.1 SSW | 192 4.8 14.6 WNW | 290
2/5/23 - 0405 20.6 94 19.2 20.1 S | 181 4.5 11.5 SE | 137
2/5/23 - 0400 20.7 94 19.4 20.2 SSW | 208 3.5 10.4 NNW | 334
2/5/23 - 0355 20.8 95 19.5 20.4 WNW | 294 2.5 8.6 N | 354
2/5/23 - 0350 21.1 94 19.8 20.6 SSW | 196 3.2 12.8 SW | 228
2/5/23 - 0345 21.3 95 20.2 20.9 N | 11 2.2 9.7 NNE | 15
2/5/23 - 0340 21.4 95 20.2 21.0 S | 172 3.3 14.0 W | 276
2/5/23 - 0335 21.7 95 20.5 21.2 SSW | 208 5.4 13.8 SSW | 213
2/5/23 - 0330 22.3 96 21.2 21.8 SSW | 206 5.9 15.9 SSW | 212
2/5/23 - 0325 22.7 96 21.7 22.3 SSW | 211 6.7 18.2 SW | 235
2/5/23 - 0320 23.3 96 22.5 22.9 SSW | 192 3.7 10.8 SW | 214
2/5/23 - 0315 23.7 96 22.8 23.3 WSW | 251 5.0 16.9 W | 262
2/5/23 - 0310 24.0 97 23.3 23.7 WSW | 242 3.7 8.9 W | 260
2/5/23 - 0305 24.4 97 23.7 24.0 SSW | 207 3.5 20.0 SW | 217
2/5/23 - 0300 24.8 97 24.0 24.4 SSE | 158 2.4 16.5 SE | 136
2/5/23 - 0255 25.0 98 24.4 24.7 SW | 223 2.8 15.6 SW | 221
2/5/23 - 0250 25.2 98 24.6 24.9 WSW | 241 3.0 12.5 W | 270
2/5/23 - 0245 25.5 97 24.8 25.1 SW | 230 5.4 17.0 WSW | 237
2/5/23 - 0240 26.0 98 25.5 25.7 SW | 229 4.1 16.1 NW | 316
2/5/23 - 0235 26.5 98 26.0 26.2 SW | 235 6.0 21.5 WNW | 302
2/5/23 - 0230 27.5 98 27.1 27.2 SSE | 158 4.0 14.9 SSW | 196
2/5/23 - 0225 28.1 99 27.8 27.8 S | 188 6.2 15.9 SSW | 210
2/5/23 - 0220 28.2 99 28.0 28.0 WSW | 238 8.9 22.1 SSE | 163
2/5/23 - 0215 27.9 99 27.7 27.7 SE | 139 7.2 23.2 SE | 134
2/5/23 - 0210 27.8 99 27.6 27.6 SSW | 205 6.0 35.0 NNW | 332
2/5/23 - 0205 27.7 99 27.4 27.5 WSW | 252 6.2 18.3 SW | 222
2/5/23 - 0200 27.8 99 27.5 27.6 W | 259 9.0 24.8 WSW | 250
2/5/23 - 0155 28.1 98 27.6 27.8 WSW | 248 6.9 26.1 W | 276
2/5/23 - 0150 28.3 98 27.8 28.0 SSE | 154 7.6 31.7 SSE | 163
2/5/23 - 0145 28.3 98 27.9 28.0 WNW | 294 6.7 22.9 WSW | 245
2/5/23 - 0140 28.4 99 28.1 28.2 NE | 36 4.1 9.5 N | 354
2/5/23 - 0135 28.4 98 28.0 28.2 NNW | 342 3.6 8.6 SSE | 156
2/5/23 - 0130 28.5 96 27.5 28.0 ENE | 62 6.7 30.6 SE | 125
2/5/23 - 0125 28.3 99 28.0 28.1 W | 280 4.3 16.3 ESE | 122
2/5/23 - 0120 28.3 98 27.8 28.0 SE | 129 5.9 23.5 ESE | 122
2/5/23 - 0115 28.2 99 27.9 28.0 SE | 131 4.6 14.8 SE | 133
2/5/23 - 0110 28.2 98 27.7 27.9 ESE | 112 5.8 21.2 ESE | 116
2/5/23 - 0105 27.9 98 27.5 27.7 SSE | 155 6.5 14.3 SW | 233
2/5/23 - 0100 27.9 98 27.6 27.7 NW | 324 6.0 24.9 WSW | 256
2/5/23 - 0055 27.8 99 27.5 27.6 S | 182 5.0 15.6 SW | 219
2/5/23 - 0050 27.8 98 27.4 27.5 NE | 50 6.9 20.2 S | 181
2/5/23 - 0045 27.4 98 26.9 27.1 NNE | 23 3.8 12.1 NNW | 340
2/5/23 - 0040 27.5 98 27.0 27.2 ESE | 110 6.2 15.4 SE | 132
2/5/23 - 0035 27.3 98 26.8 27.0 E | 86 4.1 13.5 NE | 38
2/5/23 - 0030 27.2 98 26.6 26.9 SE | 145 5.1 19.2 SE | 129
2/5/23 - 0025 26.6 98 26.1 26.3 NW | 315 4.2 14.9 NW | 305
2/5/23 - 0020 26.6 97 26.0 26.3 WNW | 295 6.8 20.4 SW | 228
2/5/23 - 0015 26.6 98 26.0 26.3 WSW | 252 7.2 22.0 NW | 308
2/5/23 - 0010 26.5 98 25.9 26.2 SSW | 201 6.9 19.6 SW | 218
2/5/23 - 0005 26.3 98 25.7 26.0 WSW | 249 6.6 23.2 WNW | 288
2/5/23 - 0000 26.5 97 25.8 26.1 S | 190 6.6 21.6 SSW | 206
2/4/23 - 2355 27.1 97 26.4 26.7 NNW | 348 3.1 15.4 W | 277
2/4/23 - 2350 27.4 98 26.8 27.0 N | 8 5.5 13.6 N | 0
2/4/23 - 2345 27.6 97 26.9 27.2 NNW | 346 3.8 11.1 NW | 322
2/4/23 - 2340 27.5 97 26.7 27.1 SE | 133 3.5 9.4 SE | 132
2/4/23 - 2335 27.9 97 27.3 27.6 NW | 305 3.9 13.3 NNW | 338
2/4/23 - 2330 27.8 98 27.2 27.5 SW | 219 5.0 12.6 SSE | 159
2/4/23 - 2325 28.1 97 27.4 27.7 SE | 143 4.2 21.8 SE | 136
2/4/23 - 2320 28.2 97 27.5 27.8 W | 259 4.0 15.1 WSW | 245
2/4/23 - 2315 28.3 95 27.1 27.8 WSW | 250 6.0 15.1 WNW | 296
2/4/23 - 2310 28.4 95 27.2 27.8 ESE | 102 4.7 12.7 E | 101
2/4/23 - 2305 28.5 96 27.5 28.0 W | 260 5.7 27.9 SW | 235
2/4/23 - 2300 28.3 96 27.4 27.8 S | 169 4.2 15.6 WNW | 283
2/4/23 - 2255 27.2 96 26.2 26.8 NNE | 18 2.8 14.8 NNW | 333
2/4/23 - 2250 27.1 97 26.3 26.7 SW | 232 4.2 16.4 SW | 230
2/4/23 - 2245 27.6 95 26.3 27.0 N | 11 4.9 14.5 SE | 128
2/4/23 - 2240 27.7 95 26.5 27.2 S | 190 7.5 17.5 WNW | 289
2/4/23 - 2235 27.6 97 26.8 27.2 E | 101 4.1 9.8 SSE | 163
2/4/23 - 2230 27.5 97 26.7 27.1 NE | 37 3.2 10.3 NW | 320
2/4/23 - 2225 28.2 97 27.5 27.8 ESE | 105 3.0 10.1 SE | 126
2/4/23 - 2220 28.2 96 27.2 27.7 NNE | 27 4.0 15.2 ENE | 69
2/4/23 - 2215 28.6 96 27.8 28.2 SE | 140 4.0 11.6 SE | 140
2/4/23 - 2210 28.6 98 28.0 28.3 SE | 131 1.1 4.2 NE | 51
2/4/23 - 2205 28.8 97 27.9 28.3 ESE | 120 2.5 6.2 ESE | 116
2/4/23 - 2200 28.8 97 28.0 28.4 SSW | 198 3.5 9.7 WSW | 245
2/4/23 - 2155 28.6 96 27.7 28.2 SW | 235 6.8 15.8 W | 280
2/4/23 - 2150 27.3 98 26.8 27.0 NE | 43 2.1 3.9 SSE | 152
2/4/23 - 2145 27.0 98 26.4 26.6 NW | 318 1.6 3.7 NNW | 329
2/4/23 - 2140 26.9 98 26.3 26.6 N | 3 3.1 6.2 N | 5
2/4/23 - 2135 26.9 98 26.3 26.6 NNE | 18 2.0 3.6 NNE | 12
2/4/23 - 2130 27.1 97 26.5 26.8 NNE | 27 1.1 4.2 NNE | 31
Max 28.8 99 28.1 28.4 - 9.0 35.0 -
Avg 20.3 94 18.9 19.8 - 4.1 11.8 -
Min 8.5 87 6.1 8.3 - 0.5 1.6 -